sensor_id;sensor_type;location;lat;lon;timestamp;P1;durP1;ratioP1;P2;durP2;ratioP2
41275;SDS011;27010;47.718;12.912;2022-09-02T00:02:11;4.67;;;3.13;;
41275;SDS011;27010;47.718;12.912;2022-09-02T00:05:14;4.43;;;3.37;;
41275;SDS011;27010;47.718;12.912;2022-09-02T00:08:18;5.70;;;3.43;;
41275;SDS011;27010;47.718;12.912;2022-09-02T00:11:21;5.17;;;3.60;;
41275;SDS011;27010;47.718;12.912;2022-09-02T00:14:27;5.37;;;3.33;;
41275;SDS011;27010;47.718;12.912;2022-09-02T00:17:31;6.63;;;3.17;;
41275;SDS011;27010;47.718;12.912;2022-09-02T00:20:33;4.10;;;3.47;;
41275;SDS011;27010;47.718;12.912;2022-09-02T00:23:35;3.57;;;3.13;;
41275;SDS011;27010;47.718;12.912;2022-09-02T00:26:39;8.20;;;3.77;;
41275;SDS011;27010;47.718;12.912;2022-09-02T00:29:41;4.40;;;3.27;;
41275;SDS011;27010;47.718;12.912;2022-09-02T00:32:43;4.93;;;2.80;;
41275;SDS011;27010;47.718;12.912;2022-09-02T00:35:45;4.80;;;3.10;;
41275;SDS011;27010;47.718;12.912;2022-09-02T00:38:47;3.67;;;3.13;;
41275;SDS011;27010;47.718;12.912;2022-09-02T00:41:49;5.33;;;3.43;;
41275;SDS011;27010;47.718;12.912;2022-09-02T00:44:52;5.03;;;3.40;;
41275;SDS011;27010;47.718;12.912;2022-09-02T00:47:54;5.73;;;4.20;;
41275;SDS011;27010;47.718;12.912;2022-09-02T00:50:56;3.77;;;3.33;;
41275;SDS011;27010;47.718;12.912;2022-09-02T00:54:00;3.50;;;3.20;;
41275;SDS011;27010;47.718;12.912;2022-09-02T00:57:03;3.87;;;3.17;;
41275;SDS011;27010;47.718;12.912;2022-09-02T01:00:14;3.53;;;3.23;;
41275;SDS011;27010;47.718;12.912;2022-09-02T01:03:27;4.87;;;3.53;;
41275;SDS011;27010;47.718;12.912;2022-09-02T01:06:30;3.53;;;3.23;;
41275;SDS011;27010;47.718;12.912;2022-09-02T01:09:33;8.70;;;4.47;;
41275;SDS011;27010;47.718;12.912;2022-09-02T01:12:36;5.70;;;3.73;;
41275;SDS011;27010;47.718;12.912;2022-09-02T01:15:40;5.73;;;3.53;;
41275;SDS011;27010;47.718;12.912;2022-09-02T01:18:46;4.10;;;3.30;;
41275;SDS011;27010;47.718;12.912;2022-09-02T01:21:51;7.80;;;3.20;;
41275;SDS011;27010;47.718;12.912;2022-09-02T01:24:55;3.87;;;3.20;;
41275;SDS011;27010;47.718;12.912;2022-09-02T01:28:09;6.03;;;3.10;;
41275;SDS011;27010;47.718;12.912;2022-09-02T01:31:13;3.53;;;3.23;;
41275;SDS011;27010;47.718;12.912;2022-09-02T01:34:16;5.93;;;3.63;;
41275;SDS011;27010;47.718;12.912;2022-09-02T01:37:18;4.80;;;3.43;;
41275;SDS011;27010;47.718;12.912;2022-09-02T01:40:21;4.40;;;3.20;;
41275;SDS011;27010;47.718;12.912;2022-09-02T01:43:25;6.17;;;3.30;;
41275;SDS011;27010;47.718;12.912;2022-09-02T01:46:28;3.73;;;3.00;;
41275;SDS011;27010;47.718;12.912;2022-09-02T01:49:30;4.30;;;3.40;;
41275;SDS011;27010;47.718;12.912;2022-09-02T01:52:36;3.87;;;3.57;;
41275;SDS011;27010;47.718;12.912;2022-09-02T01:55:38;3.03;;;2.73;;
41275;SDS011;27010;47.718;12.912;2022-09-02T01:58:40;3.63;;;3.23;;
41275;SDS011;27010;47.718;12.912;2022-09-02T02:01:43;3.63;;;3.00;;
41275;SDS011;27010;47.718;12.912;2022-09-02T02:04:46;4.17;;;2.80;;
41275;SDS011;27010;47.718;12.912;2022-09-02T02:07:49;3.60;;;3.30;;
41275;SDS011;27010;47.718;12.912;2022-09-02T02:10:51;7.37;;;3.47;;
41275;SDS011;27010;47.718;12.912;2022-09-02T02:13:53;3.47;;;3.07;;
41275;SDS011;27010;47.718;12.912;2022-09-02T02:16:55;4.77;;;3.50;;
41275;SDS011;27010;47.718;12.912;2022-09-02T02:19:57;3.80;;;3.40;;
41275;SDS011;27010;47.718;12.912;2022-09-02T02:22:59;5.77;;;3.57;;
41275;SDS011;27010;47.718;12.912;2022-09-02T02:26:02;7.60;;;3.10;;
41275;SDS011;27010;47.718;12.912;2022-09-02T02:29:04;4.87;;;3.33;;
41275;SDS011;27010;47.718;12.912;2022-09-02T02:32:06;4.40;;;3.50;;
41275;SDS011;27010;47.718;12.912;2022-09-02T02:35:09;5.03;;;3.00;;
41275;SDS011;27010;47.718;12.912;2022-09-02T02:38:11;6.07;;;3.70;;
41275;SDS011;27010;47.718;12.912;2022-09-02T02:41:15;11.53;;;3.80;;
41275;SDS011;27010;47.718;12.912;2022-09-02T02:44:17;3.90;;;3.50;;
41275;SDS011;27010;47.718;12.912;2022-09-02T02:47:19;3.83;;;3.20;;
41275;SDS011;27010;47.718;12.912;2022-09-02T02:50:22;4.63;;;3.20;;
41275;SDS011;27010;47.718;12.912;2022-09-02T02:53:24;3.40;;;3.10;;
41275;SDS011;27010;47.718;12.912;2022-09-02T02:56:26;4.53;;;3.00;;
41275;SDS011;27010;47.718;12.912;2022-09-02T02:59:30;3.70;;;3.20;;
41275;SDS011;27010;47.718;12.912;2022-09-02T03:02:33;3.40;;;3.10;;
41275;SDS011;27010;47.718;12.912;2022-09-02T03:05:36;4.43;;;3.40;;
41275;SDS011;27010;47.718;12.912;2022-09-02T03:08:38;3.43;;;2.97;;
41275;SDS011;27010;47.718;12.912;2022-09-02T03:11:40;3.83;;;3.43;;
41275;SDS011;27010;47.718;12.912;2022-09-02T03:14:42;3.77;;;3.47;;
41275;SDS011;27010;47.718;12.912;2022-09-02T03:17:45;4.10;;;3.47;;
41275;SDS011;27010;47.718;12.912;2022-09-02T03:20:49;5.43;;;3.47;;
41275;SDS011;27010;47.718;12.912;2022-09-02T03:23:51;5.40;;;3.73;;
41275;SDS011;27010;47.718;12.912;2022-09-02T03:26:53;7.07;;;3.83;;
41275;SDS011;27010;47.718;12.912;2022-09-02T03:29:55;3.80;;;3.50;;
41275;SDS011;27010;47.718;12.912;2022-09-02T03:32:58;3.53;;;3.20;;
41275;SDS011;27010;47.718;12.912;2022-09-02T03:36:04;10.37;;;3.60;;
41275;SDS011;27010;47.718;12.912;2022-09-02T03:39:07;6.10;;;3.53;;
41275;SDS011;27010;47.718;12.912;2022-09-02T03:42:10;3.83;;;3.53;;
41275;SDS011;27010;47.718;12.912;2022-09-02T03:45:20;3.97;;;3.57;;
41275;SDS011;27010;47.718;12.912;2022-09-02T03:48:22;4.53;;;3.47;;
41275;SDS011;27010;47.718;12.912;2022-09-02T03:51:24;4.97;;;3.60;;
41275;SDS011;27010;47.718;12.912;2022-09-02T03:54:26;6.07;;;3.73;;
41275;SDS011;27010;47.718;12.912;2022-09-02T03:57:29;5.53;;;3.80;;
41275;SDS011;27010;47.718;12.912;2022-09-02T04:00:34;8.20;;;4.17;;
41275;SDS011;27010;47.718;12.912;2022-09-02T04:03:36;5.90;;;3.80;;
41275;SDS011;27010;47.718;12.912;2022-09-02T04:06:38;6.00;;;3.33;;
41275;SDS011;27010;47.718;12.912;2022-09-02T04:09:40;4.70;;;3.60;;
41275;SDS011;27010;47.718;12.912;2022-09-02T04:12:47;4.40;;;3.77;;
41275;SDS011;27010;47.718;12.912;2022-09-02T04:15:50;4.23;;;3.83;;
41275;SDS011;27010;47.718;12.912;2022-09-02T04:18:52;4.87;;;3.70;;
41275;SDS011;27010;47.718;12.912;2022-09-02T04:21:58;6.23;;;3.57;;
41275;SDS011;27010;47.718;12.912;2022-09-02T04:25:01;7.00;;;3.93;;
41275;SDS011;27010;47.718;12.912;2022-09-02T04:28:04;4.17;;;3.67;;
41275;SDS011;27010;47.718;12.912;2022-09-02T04:31:07;8.30;;;4.00;;
41275;SDS011;27010;47.718;12.912;2022-09-02T04:34:11;4.77;;;4.30;;
41275;SDS011;27010;47.718;12.912;2022-09-02T04:37:13;6.97;;;3.37;;
41275;SDS011;27010;47.718;12.912;2022-09-02T04:40:16;4.83;;;4.07;;
41275;SDS011;27010;47.718;12.912;2022-09-02T04:43:18;5.53;;;4.10;;
41275;SDS011;27010;47.718;12.912;2022-09-02T04:46:20;6.03;;;4.07;;
41275;SDS011;27010;47.718;12.912;2022-09-02T04:49:35;4.50;;;4.10;;
41275;SDS011;27010;47.718;12.912;2022-09-02T04:52:36;4.10;;;3.70;;
41275;SDS011;27010;47.718;12.912;2022-09-02T04:55:40;3.80;;;3.50;;
41275;SDS011;27010;47.718;12.912;2022-09-02T04:58:42;4.77;;;4.27;;
41275;SDS011;27010;47.718;12.912;2022-09-02T05:01:45;4.87;;;4.00;;
41275;SDS011;27010;47.718;12.912;2022-09-02T05:04:48;5.63;;;5.10;;
41275;SDS011;27010;47.718;12.912;2022-09-02T05:07:50;4.63;;;3.87;;
41275;SDS011;27010;47.718;12.912;2022-09-02T05:10:52;4.03;;;3.57;;
41275;SDS011;27010;47.718;12.912;2022-09-02T05:13:55;3.57;;;3.27;;
41275;SDS011;27010;47.718;12.912;2022-09-02T05:16:59;4.00;;;3.47;;
41275;SDS011;27010;47.718;12.912;2022-09-02T05:20:07;6.30;;;3.80;;
41275;SDS011;27010;47.718;12.912;2022-09-02T05:23:11;6.43;;;3.83;;
41275;SDS011;27010;47.718;12.912;2022-09-02T05:26:14;7.20;;;4.07;;
41275;SDS011;27010;47.718;12.912;2022-09-02T05:29:16;5.33;;;3.63;;
41275;SDS011;27010;47.718;12.912;2022-09-02T05:32:21;5.00;;;4.50;;
41275;SDS011;27010;47.718;12.912;2022-09-02T05:35:23;4.43;;;4.10;;
41275;SDS011;27010;47.718;12.912;2022-09-02T05:38:25;5.13;;;3.70;;
41275;SDS011;27010;47.718;12.912;2022-09-02T05:41:27;4.30;;;3.87;;
41275;SDS011;27010;47.718;12.912;2022-09-02T05:44:29;5.23;;;3.90;;
41275;SDS011;27010;47.718;12.912;2022-09-02T05:47:32;5.43;;;3.50;;
41275;SDS011;27010;47.718;12.912;2022-09-02T05:50:36;4.70;;;3.70;;
41275;SDS011;27010;47.718;12.912;2022-09-02T05:53:38;4.43;;;3.57;;
41275;SDS011;27010;47.718;12.912;2022-09-02T05:56:40;4.17;;;3.87;;
41275;SDS011;27010;47.718;12.912;2022-09-02T05:59:45;4.70;;;3.33;;
41275;SDS011;27010;47.718;12.912;2022-09-02T06:02:49;4.80;;;3.23;;
41275;SDS011;27010;47.718;12.912;2022-09-02T06:05:55;6.27;;;3.77;;
41275;SDS011;27010;47.718;12.912;2022-09-02T06:09:04;3.57;;;3.27;;
41275;SDS011;27010;47.718;12.912;2022-09-02T06:12:09;4.40;;;3.03;;
41275;SDS011;27010;47.718;12.912;2022-09-02T06:15:12;3.33;;;2.97;;
41275;SDS011;27010;47.718;12.912;2022-09-02T06:18:16;3.83;;;3.30;;
41275;SDS011;27010;47.718;12.912;2022-09-02T06:21:18;5.80;;;3.20;;
41275;SDS011;27010;47.718;12.912;2022-09-02T06:24:21;3.80;;;3.50;;
41275;SDS011;27010;47.718;12.912;2022-09-02T06:27:23;3.40;;;3.13;;
41275;SDS011;27010;47.718;12.912;2022-09-02T06:30:25;4.20;;;3.07;;
41275;SDS011;27010;47.718;12.912;2022-09-02T06:33:27;3.20;;;3.00;;
41275;SDS011;27010;47.718;12.912;2022-09-02T06:36:29;3.50;;;3.20;;
41275;SDS011;27010;47.718;12.912;2022-09-02T06:39:32;3.97;;;3.33;;
41275;SDS011;27010;47.718;12.912;2022-09-02T06:42:34;3.77;;;3.17;;
41275;SDS011;27010;47.718;12.912;2022-09-02T06:45:39;3.70;;;3.40;;
41275;SDS011;27010;47.718;12.912;2022-09-02T06:48:42;2.90;;;2.60;;
41275;SDS011;27010;47.718;12.912;2022-09-02T06:51:45;4.77;;;3.00;;
41275;SDS011;27010;47.718;12.912;2022-09-02T06:54:48;3.23;;;2.83;;
41275;SDS011;27010;47.718;12.912;2022-09-02T06:57:52;3.57;;;2.83;;
41275;SDS011;27010;47.718;12.912;2022-09-02T07:00:54;4.07;;;2.70;;
41275;SDS011;27010;47.718;12.912;2022-09-02T07:03:56;3.27;;;2.63;;
41275;SDS011;27010;47.718;12.912;2022-09-02T07:07:17;2.77;;;2.53;;
41275;SDS011;27010;47.718;12.912;2022-09-02T07:10:19;4.03;;;2.77;;
41275;SDS011;27010;47.718;12.912;2022-09-02T07:13:21;4.37;;;2.80;;
41275;SDS011;27010;47.718;12.912;2022-09-02T07:16:22;5.00;;;2.80;;
41275;SDS011;27010;47.718;12.912;2022-09-02T07:19:27;3.27;;;2.90;;
41275;SDS011;27010;47.718;12.912;2022-09-02T07:22:29;2.73;;;2.50;;
41275;SDS011;27010;47.718;12.912;2022-09-02T07:25:31;3.10;;;2.80;;
41275;SDS011;27010;47.718;12.912;2022-09-02T07:28:33;5.40;;;4.40;;
41275;SDS011;27010;47.718;12.912;2022-09-02T07:31:36;4.10;;;3.70;;
41275;SDS011;27010;47.718;12.912;2022-09-02T07:34:40;4.03;;;3.57;;
41275;SDS011;27010;47.718;12.912;2022-09-02T07:37:42;4.13;;;2.90;;
41275;SDS011;27010;47.718;12.912;2022-09-02T07:40:44;4.37;;;3.10;;
41275;SDS011;27010;47.718;12.912;2022-09-02T07:43:47;4.00;;;3.10;;
41275;SDS011;27010;47.718;12.912;2022-09-02T07:46:52;3.23;;;2.60;;
41275;SDS011;27010;47.718;12.912;2022-09-02T07:49:55;2.70;;;2.50;;
41275;SDS011;27010;47.718;12.912;2022-09-02T07:53:17;2.70;;;2.50;;
41275;SDS011;27010;47.718;12.912;2022-09-02T07:56:20;2.93;;;2.53;;
41275;SDS011;27010;47.718;12.912;2022-09-02T07:59:22;4.10;;;2.77;;
41275;SDS011;27010;47.718;12.912;2022-09-02T08:02:25;3.77;;;2.20;;
41275;SDS011;27010;47.718;12.912;2022-09-02T08:05:27;5.37;;;2.63;;
41275;SDS011;27010;47.718;12.912;2022-09-02T08:08:30;5.53;;;2.50;;
41275;SDS011;27010;47.718;12.912;2022-09-02T08:11:32;3.67;;;2.67;;
41275;SDS011;27010;47.718;12.912;2022-09-02T08:14:37;3.60;;;2.67;;
41275;SDS011;27010;47.718;12.912;2022-09-02T08:17:39;2.70;;;2.33;;
41275;SDS011;27010;47.718;12.912;2022-09-02T08:20:41;3.77;;;2.40;;
41275;SDS011;27010;47.718;12.912;2022-09-02T08:23:43;5.27;;;2.63;;
41275;SDS011;27010;47.718;12.912;2022-09-02T08:26:49;2.70;;;2.23;;
41275;SDS011;27010;47.718;12.912;2022-09-02T08:29:52;3.97;;;2.40;;
41275;SDS011;27010;47.718;12.912;2022-09-02T08:32:55;5.27;;;2.83;;
41275;SDS011;27010;47.718;12.912;2022-09-02T08:36:00;3.27;;;2.40;;
41275;SDS011;27010;47.718;12.912;2022-09-02T08:39:06;3.17;;;2.10;;
41275;SDS011;27010;47.718;12.912;2022-09-02T08:45:29;2.50;;;2.30;;
41275;SDS011;27010;47.718;12.912;2022-09-02T08:52:28;3.50;;;2.20;;
41275;SDS011;27010;47.718;12.912;2022-09-02T08:55:53;3.73;;;2.00;;
41275;SDS011;27010;47.718;12.912;2022-09-02T08:58:56;3.83;;;2.40;;
41275;SDS011;27010;47.718;12.912;2022-09-02T09:02:16;3.17;;;2.67;;
41275;SDS011;27010;47.718;12.912;2022-09-02T09:21:58;2.80;;;2.33;;
41275;SDS011;27010;47.718;12.912;2022-09-02T09:25:08;2.73;;;2.03;;
41275;SDS011;27010;47.718;12.912;2022-09-02T09:28:17;3.90;;;2.00;;
41275;SDS011;27010;47.718;12.912;2022-09-02T09:31:20;3.20;;;1.77;;
41275;SDS011;27010;47.718;12.912;2022-09-02T09:34:23;3.17;;;1.70;;
41275;SDS011;27010;47.718;12.912;2022-09-02T09:37:38;4.20;;;1.50;;
41275;SDS011;27010;47.718;12.912;2022-09-02T09:40:42;3.75;;;1.80;;
41275;SDS011;27010;47.718;12.912;2022-09-02T09:43:44;5.28;;;1.80;;
41275;SDS011;27010;47.718;12.912;2022-09-02T09:46:46;4.20;;;2.03;;
41275;SDS011;27010;47.718;12.912;2022-09-02T09:53:21;2.80;;;1.42;;
41275;SDS011;27010;47.718;12.912;2022-09-02T09:56:26;3.35;;;1.88;;
41275;SDS011;27010;47.718;12.912;2022-09-02T09:59:39;1.70;;;1.52;;
41275;SDS011;27010;47.718;12.912;2022-09-02T10:02:47;2.15;;;1.95;;
41275;SDS011;27010;47.718;12.912;2022-09-02T10:05:55;5.13;;;2.33;;
41275;SDS011;27010;47.718;12.912;2022-09-02T10:09:02;2.53;;;1.83;;
41275;SDS011;27010;47.718;12.912;2022-09-02T10:12:07;2.42;;;1.92;;
41275;SDS011;27010;47.718;12.912;2022-09-02T10:15:11;2.88;;;1.95;;
41275;SDS011;27010;47.718;12.912;2022-09-02T10:18:20;2.53;;;1.83;;
41275;SDS011;27010;47.718;12.912;2022-09-02T10:25:17;3.30;;;1.90;;
41275;SDS011;27010;47.718;12.912;2022-09-02T10:38:43;2.38;;;2.17;;
41275;SDS011;27010;47.718;12.912;2022-09-02T10:41:46;2.88;;;2.05;;
41275;SDS011;27010;47.718;12.912;2022-09-02T10:45:00;5.68;;;2.63;;
41275;SDS011;27010;47.718;12.912;2022-09-02T10:55:32;4.20;;;2.42;;
41275;SDS011;27010;47.718;12.912;2022-09-02T11:05:27;3.10;;;2.15;;
41275;SDS011;27010;47.718;12.912;2022-09-02T11:08:33;3.95;;;2.30;;
41275;SDS011;27010;47.718;12.912;2022-09-02T11:11:50;3.20;;;2.35;;
41275;SDS011;27010;47.718;12.912;2022-09-02T11:18:24;2.35;;;2.08;;
41275;SDS011;27010;47.718;12.912;2022-09-02T11:25:27;2.67;;;2.25;;
41275;SDS011;27010;47.718;12.912;2022-09-02T11:32:06;3.45;;;2.65;;
41275;SDS011;27010;47.718;12.912;2022-09-02T11:35:22;3.35;;;2.00;;
41275;SDS011;27010;47.718;12.912;2022-09-02T11:38:30;5.72;;;2.33;;
41275;SDS011;27010;47.718;12.912;2022-09-02T11:54:38;4.97;;;1.88;;
41275;SDS011;27010;47.718;12.912;2022-09-02T11:57:42;2.40;;;1.92;;
41275;SDS011;27010;47.718;12.912;2022-09-02T12:07:47;2.92;;;1.67;;
41275;SDS011;27010;47.718;12.912;2022-09-02T12:13:53;2.08;;;1.80;;
41275;SDS011;27010;47.718;12.912;2022-09-02T12:17:05;2.10;;;1.83;;
41275;SDS011;27010;47.718;12.912;2022-09-02T12:20:09;3.08;;;1.70;;
41275;SDS011;27010;47.718;12.912;2022-09-02T12:29:55;3.90;;;1.85;;
41275;SDS011;27010;47.718;12.912;2022-09-02T12:33:01;1.52;;;1.38;;
41275;SDS011;27010;47.718;12.912;2022-09-02T12:36:06;3.17;;;1.85;;
41275;SDS011;27010;47.718;12.912;2022-09-02T12:42:25;1.90;;;1.60;;
41275;SDS011;27010;47.718;12.912;2022-09-02T12:45:30;1.60;;;1.50;;
41275;SDS011;27010;47.718;12.912;2022-09-02T12:48:36;4.88;;;1.83;;
41275;SDS011;27010;47.718;12.912;2022-09-02T12:54:54;2.35;;;1.40;;
41275;SDS011;27010;47.718;12.912;2022-09-02T12:58:09;1.67;;;1.45;;
41275;SDS011;27010;47.718;12.912;2022-09-02T13:01:19;3.25;;;1.48;;
41275;SDS011;27010;47.718;12.912;2022-09-02T13:04:31;2.80;;;1.40;;
41275;SDS011;27010;47.718;12.912;2022-09-02T13:25:15;2.33;;;1.23;;
41275;SDS011;27010;47.718;12.912;2022-09-02T13:35:17;1.88;;;1.40;;
41275;SDS011;27010;47.718;12.912;2022-09-02T13:38:25;3.70;;;1.25;;
41275;SDS011;27010;47.718;12.912;2022-09-02T13:41:30;2.30;;;1.30;;
41275;SDS011;27010;47.718;12.912;2022-09-02T13:44:33;2.88;;;1.35;;
41275;SDS011;27010;47.718;12.912;2022-09-02T13:47:35;3.00;;;1.10;;
41275;SDS011;27010;47.718;12.912;2022-09-02T13:50:41;1.77;;;1.23;;
41275;SDS011;27010;47.718;12.912;2022-09-02T13:53:45;1.30;;;1.17;;
41275;SDS011;27010;47.718;12.912;2022-09-02T13:57:09;4.30;;;1.25;;
41275;SDS011;27010;47.718;12.912;2022-09-02T14:00:14;3.67;;;1.70;;
41275;SDS011;27010;47.718;12.912;2022-09-02T14:03:18;1.65;;;1.30;;
41275;SDS011;27010;47.718;12.912;2022-09-02T14:06:29;3.40;;;1.60;;
41275;SDS011;27010;47.718;12.912;2022-09-02T14:09:33;2.13;;;1.38;;
41275;SDS011;27010;47.718;12.912;2022-09-02T14:12:36;1.77;;;1.40;;
41275;SDS011;27010;47.718;12.912;2022-09-02T14:15:39;1.40;;;1.10;;
41275;SDS011;27010;47.718;12.912;2022-09-02T14:19:01;1.10;;;1.02;;
41275;SDS011;27010;47.718;12.912;2022-09-02T14:22:25;2.13;;;1.13;;
41275;SDS011;27010;47.718;12.912;2022-09-02T14:25:31;6.15;;;1.30;;
41275;SDS011;27010;47.718;12.912;2022-09-02T14:28:37;1.98;;;1.08;;
41275;SDS011;27010;47.718;12.912;2022-09-02T14:31:39;1.67;;;0.80;;
41275;SDS011;27010;47.718;12.912;2022-09-02T14:34:44;1.55;;;1.02;;
41275;SDS011;27010;47.718;12.912;2022-09-02T14:37:48;1.85;;;1.00;;
41275;SDS011;27010;47.718;12.912;2022-09-02T14:41:09;2.03;;;1.00;;
41275;SDS011;27010;47.718;12.912;2022-09-02T14:44:17;1.88;;;0.90;;
41275;SDS011;27010;47.718;12.912;2022-09-02T14:47:27;2.90;;;0.80;;
41275;SDS011;27010;47.718;12.912;2022-09-02T14:50:30;1.60;;;0.75;;
41275;SDS011;27010;47.718;12.912;2022-09-02T14:53:33;1.23;;;0.82;;
41275;SDS011;27010;47.718;12.912;2022-09-02T14:56:41;1.73;;;1.10;;
41275;SDS011;27010;47.718;12.912;2022-09-02T14:59:45;3.03;;;0.90;;
41275;SDS011;27010;47.718;12.912;2022-09-02T15:02:52;2.75;;;0.90;;
41275;SDS011;27010;47.718;12.912;2022-09-02T15:05:57;5.28;;;1.23;;
41275;SDS011;27010;47.718;12.912;2022-09-02T15:08:59;1.88;;;0.77;;
41275;SDS011;27010;47.718;12.912;2022-09-02T15:12:01;1.60;;;0.90;;
41275;SDS011;27010;47.718;12.912;2022-09-02T15:15:03;1.75;;;0.88;;
41275;SDS011;27010;47.718;12.912;2022-09-02T15:18:06;2.75;;;1.10;;
41275;SDS011;27010;47.718;12.912;2022-09-02T15:21:09;1.70;;;0.80;;
41275;SDS011;27010;47.718;12.912;2022-09-02T15:24:11;1.13;;;1.00;;
41275;SDS011;27010;47.718;12.912;2022-09-02T15:27:14;7.78;;;1.75;;
41275;SDS011;27010;47.718;12.912;2022-09-02T15:30:22;2.90;;;1.30;;
41275;SDS011;27010;47.718;12.912;2022-09-02T15:33:24;1.33;;;1.05;;
41275;SDS011;27010;47.718;12.912;2022-09-02T15:36:26;3.38;;;1.23;;
41275;SDS011;27010;47.718;12.912;2022-09-02T15:39:28;3.15;;;1.27;;
41275;SDS011;27010;47.718;12.912;2022-09-02T15:42:37;2.05;;;1.20;;
41275;SDS011;27010;47.718;12.912;2022-09-02T15:45:46;4.63;;;1.35;;
41275;SDS011;27010;47.718;12.912;2022-09-02T15:48:51;2.08;;;0.90;;
41275;SDS011;27010;47.718;12.912;2022-09-02T15:51:54;2.72;;;1.30;;
41275;SDS011;27010;47.718;12.912;2022-09-02T15:54:56;2.47;;;1.20;;
41275;SDS011;27010;47.718;12.912;2022-09-02T15:58:00;2.03;;;0.93;;
41275;SDS011;27010;47.718;12.912;2022-09-02T16:01:03;1.92;;;1.23;;
41275;SDS011;27010;47.718;12.912;2022-09-02T16:04:05;1.38;;;0.82;;
41275;SDS011;27010;47.718;12.912;2022-09-02T16:07:08;2.97;;;1.05;;
41275;SDS011;27010;47.718;12.912;2022-09-02T16:10:17;2.03;;;1.10;;
41275;SDS011;27010;47.718;12.912;2022-09-02T16:13:18;1.98;;;1.00;;
41275;SDS011;27010;47.718;12.912;2022-09-02T16:16:22;1.23;;;0.90;;
41275;SDS011;27010;47.718;12.912;2022-09-02T16:19:24;6.70;;;1.20;;
41275;SDS011;27010;47.718;12.912;2022-09-02T16:22:30;1.27;;;1.10;;
41275;SDS011;27010;47.718;12.912;2022-09-02T16:25:32;2.80;;;1.15;;
41275;SDS011;27010;47.718;12.912;2022-09-02T16:28:38;1.30;;;1.20;;
41275;SDS011;27010;47.718;12.912;2022-09-02T16:31:42;1.10;;;1.00;;
41275;SDS011;27010;47.718;12.912;2022-09-02T16:35:06;2.50;;;1.30;;
41275;SDS011;27010;47.718;12.912;2022-09-02T16:38:08;2.55;;;1.25;;
41275;SDS011;27010;47.718;12.912;2022-09-02T16:41:24;5.72;;;3.40;;
41275;SDS011;27010;47.718;12.912;2022-09-02T16:44:36;3.13;;;1.55;;
41275;SDS011;27010;47.718;12.912;2022-09-02T16:47:38;2.28;;;1.90;;
41275;SDS011;27010;47.718;12.912;2022-09-02T16:50:40;6.40;;;2.15;;
41275;SDS011;27010;47.718;12.912;2022-09-02T16:53:42;3.22;;;2.00;;
41275;SDS011;27010;47.718;12.912;2022-09-02T16:56:45;3.03;;;1.48;;
41275;SDS011;27010;47.718;12.912;2022-09-02T16:59:47;2.72;;;1.55;;
41275;SDS011;27010;47.718;12.912;2022-09-02T17:02:50;3.85;;;1.80;;
41275;SDS011;27010;47.718;12.912;2022-09-02T17:05:52;1.92;;;1.30;;
41275;SDS011;27010;47.718;12.912;2022-09-02T17:08:54;1.85;;;1.30;;
41275;SDS011;27010;47.718;12.912;2022-09-02T17:11:56;2.42;;;1.63;;
41275;SDS011;27010;47.718;12.912;2022-09-02T17:14:58;5.17;;;2.53;;
41275;SDS011;27010;47.718;12.912;2022-09-02T17:18:00;10.40;;;3.90;;
41275;SDS011;27010;47.718;12.912;2022-09-02T17:24:20;3.97;;;1.60;;
41275;SDS011;27010;47.718;12.912;2022-09-02T17:27:24;2.03;;;1.63;;
41275;SDS011;27010;47.718;12.912;2022-09-02T17:30:27;1.83;;;1.40;;
41275;SDS011;27010;47.718;12.912;2022-09-02T17:33:30;3.20;;;1.57;;
41275;SDS011;27010;47.718;12.912;2022-09-02T17:36:32;1.47;;;1.37;;
41275;SDS011;27010;47.718;12.912;2022-09-02T17:39:36;2.90;;;1.70;;
41275;SDS011;27010;47.718;12.912;2022-09-02T17:42:38;2.27;;;1.53;;
41275;SDS011;27010;47.718;12.912;2022-09-02T17:45:40;1.30;;;1.20;;
41275;SDS011;27010;47.718;12.912;2022-09-02T17:48:42;1.60;;;1.40;;
41275;SDS011;27010;47.718;12.912;2022-09-02T17:52:04;2.97;;;1.30;;
41275;SDS011;27010;47.718;12.912;2022-09-02T17:55:08;1.47;;;1.30;;
41275;SDS011;27010;47.718;12.912;2022-09-02T17:58:11;2.07;;;1.40;;
41275;SDS011;27010;47.718;12.912;2022-09-02T18:01:17;2.30;;;1.87;;
41275;SDS011;27010;47.718;12.912;2022-09-02T18:05:11;1.50;;;1.40;;
41275;SDS011;27010;47.718;12.912;2022-09-02T18:07:58;3.57;;;1.60;;
41275;SDS011;27010;47.718;12.912;2022-09-02T18:11:09;2.00;;;1.67;;
41275;SDS011;27010;47.718;12.912;2022-09-02T18:17:35;1.57;;;1.47;;
41275;SDS011;27010;47.718;12.912;2022-09-02T18:20:39;2.80;;;1.33;;
41275;SDS011;27010;47.718;12.912;2022-09-02T18:23:57;1.50;;;1.40;;
41275;SDS011;27010;47.718;12.912;2022-09-02T18:31:03;1.73;;;1.47;;
41275;SDS011;27010;47.718;12.912;2022-09-02T18:41:10;2.50;;;1.80;;
41275;SDS011;27010;47.718;12.912;2022-09-02T18:47:30;2.60;;;1.37;;
41275;SDS011;27010;47.718;12.912;2022-09-02T18:50:45;4.17;;;1.27;;
41275;SDS011;27010;47.718;12.912;2022-09-02T18:54:13;1.80;;;1.70;;
41275;SDS011;27010;47.718;12.912;2022-09-02T18:57:16;5.07;;;1.13;;
41275;SDS011;27010;47.718;12.912;2022-09-02T19:00:18;1.63;;;1.50;;
41275;SDS011;27010;47.718;12.912;2022-09-02T19:03:22;4.90;;;1.70;;
41275;SDS011;27010;47.718;12.912;2022-09-02T19:06:25;2.67;;;2.00;;
41275;SDS011;27010;47.718;12.912;2022-09-02T19:09:31;2.00;;;1.63;;
41275;SDS011;27010;47.718;12.912;2022-09-02T19:12:33;1.53;;;1.43;;
41275;SDS011;27010;47.718;12.912;2022-09-02T19:15:37;2.33;;;1.70;;
41275;SDS011;27010;47.718;12.912;2022-09-02T19:18:40;2.80;;;1.40;;
41275;SDS011;27010;47.718;12.912;2022-09-02T19:21:43;1.67;;;1.50;;
41275;SDS011;27010;47.718;12.912;2022-09-02T19:24:52;1.90;;;1.67;;
41275;SDS011;27010;47.718;12.912;2022-09-02T19:27:58;1.87;;;1.63;;
41275;SDS011;27010;47.718;12.912;2022-09-02T19:31:06;3.00;;;1.90;;
41275;SDS011;27010;47.718;12.912;2022-09-02T19:34:17;4.37;;;1.53;;
41275;SDS011;27010;47.718;12.912;2022-09-02T19:37:19;1.87;;;1.60;;
41275;SDS011;27010;47.718;12.912;2022-09-02T19:40:24;4.67;;;1.90;;
41275;SDS011;27010;47.718;12.912;2022-09-02T19:43:33;2.97;;;1.70;;
41275;SDS011;27010;47.718;12.912;2022-09-02T19:46:36;2.47;;;1.70;;
41275;SDS011;27010;47.718;12.912;2022-09-02T19:50:00;4.53;;;1.83;;
41275;SDS011;27010;47.718;12.912;2022-09-02T19:53:03;2.63;;;1.67;;
41275;SDS011;27010;47.718;12.912;2022-09-02T19:56:06;2.10;;;1.90;;
41275;SDS011;27010;47.718;12.912;2022-09-02T19:59:09;2.20;;;2.00;;
41275;SDS011;27010;47.718;12.912;2022-09-02T20:02:11;6.43;;;2.27;;
41275;SDS011;27010;47.718;12.912;2022-09-02T20:05:15;3.00;;;1.90;;
41275;SDS011;27010;47.718;12.912;2022-09-02T20:08:17;2.10;;;1.90;;
41275;SDS011;27010;47.718;12.912;2022-09-02T20:11:20;2.50;;;2.13;;
41275;SDS011;27010;47.718;12.912;2022-09-02T20:14:22;2.77;;;1.87;;
41275;SDS011;27010;47.718;12.912;2022-09-02T20:17:25;4.47;;;1.87;;
41275;SDS011;27010;47.718;12.912;2022-09-02T20:20:29;2.23;;;2.00;;
41275;SDS011;27010;47.718;12.912;2022-09-02T20:23:32;4.17;;;2.40;;
41275;SDS011;27010;47.718;12.912;2022-09-02T20:30:05;3.50;;;2.10;;
41275;SDS011;27010;47.718;12.912;2022-09-02T20:33:16;4.13;;;1.90;;
41275;SDS011;27010;47.718;12.912;2022-09-02T20:36:25;4.67;;;1.70;;
41275;SDS011;27010;47.718;12.912;2022-09-02T20:46:19;4.33;;;2.20;;
41275;SDS011;27010;47.718;12.912;2022-09-02T21:03:08;5.50;;;2.27;;
41275;SDS011;27010;47.718;12.912;2022-09-02T21:06:11;4.67;;;2.40;;
41275;SDS011;27010;47.718;12.912;2022-09-02T21:12:58;2.57;;;1.80;;